sensor_id;sensor_type;location;lat;lon;timestamp;P1;durP1;ratioP1;P2;durP2;ratioP2
28296;SDS011;62078;49.366;8.172;2022-08-19T00:01:54;18.50;;;13.63;;
28296;SDS011;62078;49.366;8.172;2022-08-19T00:04:21;15.10;;;13.50;;
28296;SDS011;62078;49.366;8.172;2022-08-19T00:06:49;15.55;;;13.63;;
28296;SDS011;62078;49.366;8.172;2022-08-19T00:09:17;15.02;;;13.35;;
28296;SDS011;62078;49.366;8.172;2022-08-19T00:11:44;15.50;;;13.57;;
28296;SDS011;62078;49.366;8.172;2022-08-19T00:14:12;15.13;;;13.20;;
28296;SDS011;62078;49.366;8.172;2022-08-19T00:16:40;15.18;;;13.57;;
28296;SDS011;62078;49.366;8.172;2022-08-19T00:19:08;14.23;;;12.68;;
28296;SDS011;62078;49.366;8.172;2022-08-19T00:21:35;14.43;;;12.93;;
28296;SDS011;62078;49.366;8.172;2022-08-19T00:24:05;14.90;;;13.40;;
28296;SDS011;62078;49.366;8.172;2022-08-19T00:26:35;14.90;;;13.43;;
28296;SDS011;62078;49.366;8.172;2022-08-19T00:29:02;15.27;;;13.77;;
28296;SDS011;62078;49.366;8.172;2022-08-19T00:31:29;15.05;;;13.55;;
28296;SDS011;62078;49.366;8.172;2022-08-19T00:33:56;14.00;;;12.60;;
28296;SDS011;62078;49.366;8.172;2022-08-19T00:36:22;17.40;;;13.38;;
28296;SDS011;62078;49.366;8.172;2022-08-19T00:38:48;14.68;;;13.27;;
28296;SDS011;62078;49.366;8.172;2022-08-19T00:41:17;14.63;;;13.13;;
28296;SDS011;62078;49.366;8.172;2022-08-19T00:44:04;15.85;;;14.23;;
28296;SDS011;62078;49.366;8.172;2022-08-19T00:46:33;16.65;;;13.65;;
28296;SDS011;62078;49.366;8.172;2022-08-19T00:49:02;14.75;;;13.27;;
28296;SDS011;62078;49.366;8.172;2022-08-19T00:51:39;15.10;;;13.40;;
28296;SDS011;62078;49.366;8.172;2022-08-19T00:54:07;15.00;;;13.52;;
28296;SDS011;62078;49.366;8.172;2022-08-19T00:56:34;16.42;;;13.20;;
28296;SDS011;62078;49.366;8.172;2022-08-19T00:59:01;17.40;;;13.30;;
28296;SDS011;62078;49.366;8.172;2022-08-19T01:01:28;15.05;;;13.50;;
28296;SDS011;62078;49.366;8.172;2022-08-19T01:03:54;13.52;;;12.23;;
28296;SDS011;62078;49.366;8.172;2022-08-19T01:06:20;15.88;;;14.20;;
28296;SDS011;62078;49.366;8.172;2022-08-19T01:08:46;14.10;;;12.70;;
28296;SDS011;62078;49.366;8.172;2022-08-19T01:11:12;14.35;;;12.75;;
28296;SDS011;62078;49.366;8.172;2022-08-19T01:13:38;15.55;;;13.65;;
28296;SDS011;62078;49.366;8.172;2022-08-19T01:16:05;14.88;;;13.38;;
28296;SDS011;62078;49.366;8.172;2022-08-19T01:18:35;14.43;;;13.02;;
28296;SDS011;62078;49.366;8.172;2022-08-19T01:21:17;14.30;;;12.90;;
28296;SDS011;62078;49.366;8.172;2022-08-19T01:23:49;15.40;;;13.95;;
28296;SDS011;62078;49.366;8.172;2022-08-19T01:26:17;15.20;;;13.70;;
28296;SDS011;62078;49.366;8.172;2022-08-19T01:28:45;14.27;;;12.88;;
28296;SDS011;62078;49.366;8.172;2022-08-19T01:31:17;14.73;;;13.27;;
28296;SDS011;62078;49.366;8.172;2022-08-19T01:33:47;13.85;;;12.45;;
28296;SDS011;62078;49.366;8.172;2022-08-19T01:36:16;14.13;;;12.70;;
28296;SDS011;62078;49.366;8.172;2022-08-19T01:38:58;15.30;;;13.38;;
28296;SDS011;62078;49.366;8.172;2022-08-19T01:41:25;16.40;;;13.75;;
28296;SDS011;62078;49.366;8.172;2022-08-19T01:43:51;15.77;;;13.05;;
28296;SDS011;62078;49.366;8.172;2022-08-19T01:46:17;14.68;;;13.23;;
28296;SDS011;62078;49.366;8.172;2022-08-19T01:48:43;15.13;;;13.73;;
28296;SDS011;62078;49.366;8.172;2022-08-19T01:51:10;14.52;;;12.55;;
28296;SDS011;62078;49.366;8.172;2022-08-19T01:53:37;15.93;;;14.05;;
28296;SDS011;62078;49.366;8.172;2022-08-19T01:56:04;14.32;;;12.90;;
28296;SDS011;62078;49.366;8.172;2022-08-19T01:58:35;15.57;;;13.95;;
28296;SDS011;62078;49.366;8.172;2022-08-19T02:01:05;14.35;;;12.95;;
28296;SDS011;62078;49.366;8.172;2022-08-19T02:03:32;15.77;;;14.18;;
28296;SDS011;62078;49.366;8.172;2022-08-19T02:06:00;14.85;;;13.15;;
28296;SDS011;62078;49.366;8.172;2022-08-19T02:08:30;16.98;;;13.93;;
28296;SDS011;62078;49.366;8.172;2022-08-19T02:10:58;14.85;;;13.40;;
28296;SDS011;62078;49.366;8.172;2022-08-19T02:13:26;13.85;;;12.55;;
28296;SDS011;62078;49.366;8.172;2022-08-19T02:15:52;15.02;;;13.45;;
28296;SDS011;62078;49.366;8.172;2022-08-19T02:18:18;14.48;;;13.07;;
28296;SDS011;62078;49.366;8.172;2022-08-19T02:20:44;14.45;;;13.02;;
28296;SDS011;62078;49.366;8.172;2022-08-19T02:23:12;14.73;;;13.40;;
28296;SDS011;62078;49.366;8.172;2022-08-19T02:25:39;16.40;;;14.77;;
28296;SDS011;62078;49.366;8.172;2022-08-19T02:28:05;14.38;;;13.00;;
28296;SDS011;62078;49.366;8.172;2022-08-19T02:30:31;15.10;;;13.60;;
28296;SDS011;62078;49.366;8.172;2022-08-19T02:32:57;15.15;;;13.68;;
28296;SDS011;62078;49.366;8.172;2022-08-19T02:35:24;15.10;;;13.48;;
28296;SDS011;62078;49.366;8.172;2022-08-19T02:37:51;15.73;;;13.23;;
28296;SDS011;62078;49.366;8.172;2022-08-19T02:40:35;17.52;;;13.85;;
28296;SDS011;62078;49.366;8.172;2022-08-19T02:43:02;14.82;;;13.32;;
28296;SDS011;62078;49.366;8.172;2022-08-19T02:45:35;18.88;;;13.57;;
28296;SDS011;62078;49.366;8.172;2022-08-19T02:48:03;53.90;;;15.10;;
28296;SDS011;62078;49.366;8.172;2022-08-19T02:50:30;37.42;;;14.23;;
28296;SDS011;62078;49.366;8.172;2022-08-19T02:52:56;30.30;;;14.30;;
28296;SDS011;62078;49.366;8.172;2022-08-19T02:55:22;19.48;;;13.10;;
28296;SDS011;62078;49.366;8.172;2022-08-19T02:57:48;31.27;;;13.70;;
28296;SDS011;62078;49.366;8.172;2022-08-19T03:00:15;24.75;;;13.32;;
28296;SDS011;62078;49.366;8.172;2022-08-19T03:02:41;17.30;;;13.50;;
28296;SDS011;62078;49.366;8.172;2022-08-19T03:05:08;18.85;;;13.23;;
28296;SDS011;62078;49.366;8.172;2022-08-19T03:07:34;20.45;;;13.40;;
28296;SDS011;62078;49.366;8.172;2022-08-19T03:10:01;24.23;;;13.18;;
28296;SDS011;62078;49.366;8.172;2022-08-19T03:12:27;16.33;;;13.45;;
28296;SDS011;62078;49.366;8.172;2022-08-19T03:14:53;19.23;;;13.95;;
28296;SDS011;62078;49.366;8.172;2022-08-19T03:17:19;19.95;;;12.63;;
28296;SDS011;62078;49.366;8.172;2022-08-19T03:19:45;17.73;;;13.30;;
28296;SDS011;62078;49.366;8.172;2022-08-19T03:22:11;18.20;;;14.05;;
28296;SDS011;62078;49.366;8.172;2022-08-19T03:24:37;16.80;;;13.00;;
28296;SDS011;62078;49.366;8.172;2022-08-19T03:27:03;14.77;;;12.68;;
28296;SDS011;62078;49.366;8.172;2022-08-19T03:29:30;14.38;;;12.95;;
28296;SDS011;62078;49.366;8.172;2022-08-19T03:31:57;14.25;;;12.75;;
28296;SDS011;62078;49.366;8.172;2022-08-19T03:34:29;15.27;;;12.90;;
28296;SDS011;62078;49.366;8.172;2022-08-19T03:36:57;13.45;;;12.10;;
28296;SDS011;62078;49.366;8.172;2022-08-19T03:39:28;14.40;;;12.45;;
28296;SDS011;62078;49.366;8.172;2022-08-19T03:41:54;16.48;;;13.32;;
28296;SDS011;62078;49.366;8.172;2022-08-19T03:44:25;14.25;;;12.50;;
28296;SDS011;62078;49.366;8.172;2022-08-19T03:46:54;13.52;;;12.13;;
28296;SDS011;62078;49.366;8.172;2022-08-19T03:49:22;16.60;;;12.48;;
28296;SDS011;62078;49.366;8.172;2022-08-19T03:51:50;15.73;;;12.20;;
28296;SDS011;62078;49.366;8.172;2022-08-19T03:54:19;14.05;;;12.55;;
28296;SDS011;62078;49.366;8.172;2022-08-19T03:56:50;13.23;;;11.82;;
28296;SDS011;62078;49.366;8.172;2022-08-19T03:59:19;13.85;;;12.18;;
28296;SDS011;62078;49.366;8.172;2022-08-19T04:01:50;13.30;;;11.90;;
28296;SDS011;62078;49.366;8.172;2022-08-19T04:04:17;16.40;;;12.77;;
28296;SDS011;62078;49.366;8.172;2022-08-19T04:06:43;14.77;;;11.85;;
28296;SDS011;62078;49.366;8.172;2022-08-19T04:09:09;12.50;;;11.20;;
28296;SDS011;62078;49.366;8.172;2022-08-19T04:11:38;12.82;;;11.05;;
28296;SDS011;62078;49.366;8.172;2022-08-19T04:14:07;13.07;;;11.70;;
28296;SDS011;62078;49.366;8.172;2022-08-19T04:16:34;13.25;;;11.95;;
28296;SDS011;62078;49.366;8.172;2022-08-19T04:19:00;13.77;;;11.20;;
28296;SDS011;62078;49.366;8.172;2022-08-19T04:21:28;12.90;;;11.45;;
28296;SDS011;62078;49.366;8.172;2022-08-19T04:23:55;13.65;;;11.93;;
28296;SDS011;62078;49.366;8.172;2022-08-19T04:26:23;12.93;;;11.63;;
28296;SDS011;62078;49.366;8.172;2022-08-19T04:28:53;12.30;;;11.10;;
28296;SDS011;62078;49.366;8.172;2022-08-19T04:31:21;12.73;;;11.38;;
28296;SDS011;62078;49.366;8.172;2022-08-19T04:33:51;12.60;;;11.10;;
28296;SDS011;62078;49.366;8.172;2022-08-19T04:36:23;12.13;;;10.93;;
28296;SDS011;62078;49.366;8.172;2022-08-19T04:38:55;12.73;;;10.80;;
28296;SDS011;62078;49.366;8.172;2022-08-19T04:41:23;11.18;;;9.90;;
28296;SDS011;62078;49.366;8.172;2022-08-19T04:44:08;11.85;;;10.52;;
28296;SDS011;62078;49.366;8.172;2022-08-19T04:46:35;11.98;;;10.45;;
28296;SDS011;62078;49.366;8.172;2022-08-19T04:49:02;11.98;;;10.60;;
28296;SDS011;62078;49.366;8.172;2022-08-19T04:51:29;10.63;;;9.63;;
28296;SDS011;62078;49.366;8.172;2022-08-19T04:53:56;11.95;;;10.00;;
28296;SDS011;62078;49.366;8.172;2022-08-19T04:56:22;12.48;;;10.50;;
28296;SDS011;62078;49.366;8.172;2022-08-19T04:58:51;11.20;;;10.10;;
28296;SDS011;62078;49.366;8.172;2022-08-19T05:01:20;11.63;;;10.52;;
28296;SDS011;62078;49.366;8.172;2022-08-19T05:03:48;10.65;;;9.55;;
28296;SDS011;62078;49.366;8.172;2022-08-19T05:06:16;11.10;;;10.00;;
28296;SDS011;62078;49.366;8.172;2022-08-19T05:08:44;10.85;;;9.80;;
28296;SDS011;62078;49.366;8.172;2022-08-19T05:11:12;10.35;;;9.30;;
28296;SDS011;62078;49.366;8.172;2022-08-19T05:13:41;12.90;;;9.60;;
28296;SDS011;62078;49.366;8.172;2022-08-19T05:16:08;10.52;;;9.52;;
28296;SDS011;62078;49.366;8.172;2022-08-19T05:18:35;11.02;;;9.70;;
28296;SDS011;62078;49.366;8.172;2022-08-19T05:21:19;11.57;;;10.48;;
28296;SDS011;62078;49.366;8.172;2022-08-19T05:24:05;11.50;;;9.48;;
28296;SDS011;62078;49.366;8.172;2022-08-19T05:26:41;11.73;;;9.90;;
28296;SDS011;62078;49.366;8.172;2022-08-19T05:29:11;10.45;;;9.40;;
28296;SDS011;62078;49.366;8.172;2022-08-19T05:31:42;9.35;;;8.30;;
28296;SDS011;62078;49.366;8.172;2022-08-19T05:34:09;10.48;;;9.48;;
28296;SDS011;62078;49.366;8.172;2022-08-19T05:36:40;12.15;;;9.60;;
28296;SDS011;62078;49.366;8.172;2022-08-19T05:39:09;10.70;;;8.93;;
28296;SDS011;62078;49.366;8.172;2022-08-19T05:41:41;9.63;;;8.73;;
28296;SDS011;62078;49.366;8.172;2022-08-19T05:44:10;12.50;;;9.15;;
28296;SDS011;62078;49.366;8.172;2022-08-19T05:46:37;11.38;;;9.55;;
28296;SDS011;62078;49.366;8.172;2022-08-19T05:49:07;10.30;;;8.68;;
28296;SDS011;62078;49.366;8.172;2022-08-19T05:51:34;9.88;;;8.85;;
28296;SDS011;62078;49.366;8.172;2022-08-19T05:54:02;9.88;;;8.88;;
28296;SDS011;62078;49.366;8.172;2022-08-19T05:56:31;9.93;;;8.93;;
28296;SDS011;62078;49.366;8.172;2022-08-19T05:58:57;12.45;;;9.25;;
28296;SDS011;62078;49.366;8.172;2022-08-19T06:01:24;10.90;;;9.00;;
28296;SDS011;62078;49.366;8.172;2022-08-19T06:03:51;9.93;;;8.93;;
28296;SDS011;62078;49.366;8.172;2022-08-19T06:06:17;10.35;;;8.73;;
28296;SDS011;62078;49.366;8.172;2022-08-19T06:08:43;9.40;;;8.48;;
28296;SDS011;62078;49.366;8.172;2022-08-19T06:11:24;10.10;;;9.05;;
28296;SDS011;62078;49.366;8.172;2022-08-19T06:13:57;9.45;;;8.18;;
28296;SDS011;62078;49.366;8.172;2022-08-19T06:16:26;10.73;;;8.73;;
28296;SDS011;62078;49.366;8.172;2022-08-19T06:18:53;9.32;;;8.32;;
28296;SDS011;62078;49.366;8.172;2022-08-19T06:21:22;9.43;;;8.50;;
28296;SDS011;62078;49.366;8.172;2022-08-19T06:23:50;8.85;;;7.95;;
28296;SDS011;62078;49.366;8.172;2022-08-19T06:26:17;9.10;;;8.20;;
28296;SDS011;62078;49.366;8.172;2022-08-19T06:28:44;9.88;;;8.00;;
28296;SDS011;62078;49.366;8.172;2022-08-19T06:31:18;10.95;;;8.20;;
28296;SDS011;62078;49.366;8.172;2022-08-19T06:33:49;8.88;;;7.97;;
28296;SDS011;62078;49.366;8.172;2022-08-19T06:36:18;10.02;;;7.72;;
28296;SDS011;62078;49.366;8.172;2022-08-19T06:38:53;9.05;;;8.15;;
28296;SDS011;62078;49.366;8.172;2022-08-19T06:41:19;11.82;;;8.07;;
28296;SDS011;62078;49.366;8.172;2022-08-19T06:43:45;11.65;;;8.27;;
28296;SDS011;62078;49.366;8.172;2022-08-19T06:46:14;8.82;;;7.82;;
28296;SDS011;62078;49.366;8.172;2022-08-19T06:48:43;8.00;;;7.15;;
28296;SDS011;62078;49.366;8.172;2022-08-19T06:51:10;11.32;;;7.35;;
28296;SDS011;62078;49.366;8.172;2022-08-19T06:53:36;22.42;;;10.27;;
28296;SDS011;62078;49.366;8.172;2022-08-19T06:56:04;15.65;;;8.77;;
28296;SDS011;62078;49.366;8.172;2022-08-19T06:58:30;13.70;;;9.15;;
28296;SDS011;62078;49.366;8.172;2022-08-19T07:01:00;12.35;;;8.40;;
28296;SDS011;62078;49.366;8.172;2022-08-19T07:03:31;19.17;;;9.18;;
28296;SDS011;62078;49.366;8.172;2022-08-19T07:06:03;11.02;;;8.80;;
28296;SDS011;62078;49.366;8.172;2022-08-19T07:08:34;12.77;;;8.75;;
28296;SDS011;62078;49.366;8.172;2022-08-19T07:11:02;14.02;;;10.00;;
28296;SDS011;62078;49.366;8.172;2022-08-19T07:13:32;11.02;;;8.40;;
28296;SDS011;62078;49.366;8.172;2022-08-19T07:16:04;13.93;;;9.40;;
28296;SDS011;62078;49.366;8.172;2022-08-19T07:18:35;11.50;;;8.07;;
28296;SDS011;62078;49.366;8.172;2022-08-19T07:21:11;15.85;;;8.40;;
28296;SDS011;62078;49.366;8.172;2022-08-19T07:23:38;12.65;;;8.13;;
28296;SDS011;62078;49.366;8.172;2022-08-19T07:26:26;11.05;;;8.77;;
28296;SDS011;62078;49.366;8.172;2022-08-19T07:28:56;11.10;;;8.75;;
28296;SDS011;62078;49.366;8.172;2022-08-19T07:31:24;11.68;;;8.63;;
28296;SDS011;62078;49.366;8.172;2022-08-19T07:33:52;11.85;;;8.27;;
28296;SDS011;62078;49.366;8.172;2022-08-19T07:36:22;9.38;;;8.20;;
28296;SDS011;62078;49.366;8.172;2022-08-19T07:38:50;11.82;;;8.80;;
28296;SDS011;62078;49.366;8.172;2022-08-19T07:41:18;11.02;;;8.60;;
28296;SDS011;62078;49.366;8.172;2022-08-19T07:43:46;9.20;;;8.02;;
28296;SDS011;62078;49.366;8.172;2022-08-19T07:46:12;11.05;;;8.43;;
28296;SDS011;62078;49.366;8.172;2022-08-19T07:48:39;11.73;;;8.65;;
28296;SDS011;62078;49.366;8.172;2022-08-19T07:51:07;9.35;;;7.72;;
28296;SDS011;62078;49.366;8.172;2022-08-19T07:53:34;10.35;;;8.65;;
28296;SDS011;62078;49.366;8.172;2022-08-19T07:56:02;11.27;;;8.10;;
28296;SDS011;62078;49.366;8.172;2022-08-19T07:58:34;11.23;;;7.82;;
28296;SDS011;62078;49.366;8.172;2022-08-19T08:01:04;17.93;;;8.33;;
28296;SDS011;62078;49.366;8.172;2022-08-19T08:03:32;12.75;;;7.97;;
28296;SDS011;62078;49.366;8.172;2022-08-19T08:06:16;15.10;;;7.53;;
28296;SDS011;62078;49.366;8.172;2022-08-19T08:09:02;12.15;;;7.93;;
28296;SDS011;62078;49.366;8.172;2022-08-19T08:11:53;12.55;;;8.50;;
28296;SDS011;62078;49.366;8.172;2022-08-19T08:14:26;9.93;;;7.60;;
28296;SDS011;62078;49.366;8.172;2022-08-19T08:16:58;10.20;;;7.32;;
28296;SDS011;62078;49.366;8.172;2022-08-19T08:19:25;11.15;;;8.20;;
28296;SDS011;62078;49.366;8.172;2022-08-19T08:21:53;12.70;;;7.60;;
28296;SDS011;62078;49.366;8.172;2022-08-19T08:24:20;10.10;;;7.32;;
28296;SDS011;62078;49.366;8.172;2022-08-19T08:26:46;9.23;;;6.70;;
28296;SDS011;62078;49.366;8.172;2022-08-19T08:29:12;8.27;;;6.45;;
28296;SDS011;62078;49.366;8.172;2022-08-19T08:31:41;8.00;;;6.53;;
28296;SDS011;62078;49.366;8.172;2022-08-19T08:34:08;9.35;;;6.38;;
28296;SDS011;62078;49.366;8.172;2022-08-19T08:36:36;8.68;;;6.53;;
28296;SDS011;62078;49.366;8.172;2022-08-19T08:39:06;8.82;;;6.55;;
28296;SDS011;62078;49.366;8.172;2022-08-19T08:41:44;10.70;;;7.13;;
28296;SDS011;62078;49.366;8.172;2022-08-19T08:47:17;8.25;;;5.93;;
28296;SDS011;62078;49.366;8.172;2022-08-19T08:49:46;9.30;;;5.82;;
28296;SDS011;62078;49.366;8.172;2022-08-19T08:52:23;9.68;;;6.90;;
28296;SDS011;62078;49.366;8.172;2022-08-19T08:55:00;7.50;;;5.95;;
28296;SDS011;62078;49.366;8.172;2022-08-19T08:57:36;9.32;;;6.72;;
28296;SDS011;62078;49.366;8.172;2022-08-19T09:00:20;7.40;;;5.00;;
28296;SDS011;62078;49.366;8.172;2022-08-19T09:02:49;10.43;;;6.55;;
28296;SDS011;62078;49.366;8.172;2022-08-19T09:05:14;9.25;;;5.15;;
28296;SDS011;62078;49.366;8.172;2022-08-19T09:07:53;7.10;;;5.78;;
28296;SDS011;62078;49.366;8.172;2022-08-19T09:15:39;9.32;;;5.88;;
28296;SDS011;62078;49.366;8.172;2022-08-19T09:18:09;10.00;;;6.65;;
28296;SDS011;62078;49.366;8.172;2022-08-19T09:20:35;11.48;;;6.10;;
28296;SDS011;62078;49.366;8.172;2022-08-19T09:23:02;8.85;;;6.35;;
28296;SDS011;62078;49.366;8.172;2022-08-19T09:25:28;8.27;;;5.55;;
28296;SDS011;62078;49.366;8.172;2022-08-19T09:27:56;10.13;;;6.70;;
28296;SDS011;62078;49.366;8.172;2022-08-19T09:30:23;10.85;;;6.40;;
28296;SDS011;62078;49.366;8.172;2022-08-19T09:32:51;9.45;;;6.20;;
28296;SDS011;62078;49.366;8.172;2022-08-19T09:35:19;6.95;;;5.82;;
28296;SDS011;62078;49.366;8.172;2022-08-19T09:37:47;10.50;;;5.22;;
28296;SDS011;62078;49.366;8.172;2022-08-19T09:40:14;6.28;;;5.00;;
28296;SDS011;62078;49.366;8.172;2022-08-19T09:42:41;9.65;;;5.55;;
28296;SDS011;62078;49.366;8.172;2022-08-19T09:45:09;7.70;;;5.18;;
28296;SDS011;62078;49.366;8.172;2022-08-19T09:47:35;8.50;;;6.10;;
28296;SDS011;62078;49.366;8.172;2022-08-19T09:50:06;8.60;;;5.20;;
28296;SDS011;62078;49.366;8.172;2022-08-19T09:52:34;6.55;;;5.10;;
28296;SDS011;62078;49.366;8.172;2022-08-19T09:55:02;10.18;;;5.43;;
28296;SDS011;62078;49.366;8.172;2022-08-19T09:57:29;8.43;;;5.90;;
28296;SDS011;62078;49.366;8.172;2022-08-19T09:59:55;6.35;;;5.35;;
28296;SDS011;62078;49.366;8.172;2022-08-19T10:02:21;8.02;;;5.75;;
28296;SDS011;62078;49.366;8.172;2022-08-19T10:04:47;9.95;;;5.60;;
28296;SDS011;62078;49.366;8.172;2022-08-19T10:07:31;7.10;;;5.05;;
28296;SDS011;62078;49.366;8.172;2022-08-19T10:09:57;8.27;;;5.43;;
28296;SDS011;62078;49.366;8.172;2022-08-19T10:12:23;10.65;;;6.43;;
28296;SDS011;62078;49.366;8.172;2022-08-19T10:14:49;8.50;;;5.75;;
28296;SDS011;62078;49.366;8.172;2022-08-19T10:17:16;7.70;;;5.65;;
28296;SDS011;62078;49.366;8.172;2022-08-19T10:19:42;9.40;;;5.53;;
28296;SDS011;62078;49.366;8.172;2022-08-19T10:22:08;10.60;;;5.60;;
28296;SDS011;62078;49.366;8.172;2022-08-19T10:24:39;9.30;;;5.63;;
28296;SDS011;62078;49.366;8.172;2022-08-19T10:27:06;7.63;;;5.28;;
28296;SDS011;62078;49.366;8.172;2022-08-19T10:29:32;9.75;;;5.47;;
28296;SDS011;62078;49.366;8.172;2022-08-19T10:32:00;6.65;;;5.32;;
28296;SDS011;62078;49.366;8.172;2022-08-19T10:34:27;7.13;;;5.50;;
28296;SDS011;62078;49.366;8.172;2022-08-19T10:36:53;7.75;;;5.40;;
28296;SDS011;62078;49.366;8.172;2022-08-19T10:39:19;10.75;;;5.68;;
28296;SDS011;62078;49.366;8.172;2022-08-19T10:41:45;10.52;;;5.28;;
28296;SDS011;62078;49.366;8.172;2022-08-19T10:44:12;7.72;;;6.28;;
28296;SDS011;62078;49.366;8.172;2022-08-19T10:46:39;8.30;;;6.22;;
28296;SDS011;62078;49.366;8.172;2022-08-19T10:49:07;9.52;;;6.80;;
28296;SDS011;62078;49.366;8.172;2022-08-19T10:51:34;9.02;;;6.45;;
28296;SDS011;62078;49.366;8.172;2022-08-19T10:54:18;8.75;;;6.50;;
28296;SDS011;62078;49.366;8.172;2022-08-19T10:56:45;11.23;;;8.35;;
28296;SDS011;62078;49.366;8.172;2022-08-19T10:59:23;9.80;;;7.72;;
28296;SDS011;62078;49.366;8.172;2022-08-19T11:01:54;10.00;;;6.53;;
28296;SDS011;62078;49.366;8.172;2022-08-19T11:04:26;12.05;;;7.22;;
28296;SDS011;62078;49.366;8.172;2022-08-19T11:06:53;9.40;;;7.13;;
28296;SDS011;62078;49.366;8.172;2022-08-19T11:09:20;8.98;;;6.93;;
28296;SDS011;62078;49.366;8.172;2022-08-19T11:11:51;8.70;;;6.85;;
28296;SDS011;62078;49.366;8.172;2022-08-19T11:14:18;9.63;;;6.75;;
28296;SDS011;62078;49.366;8.172;2022-08-19T11:16:45;8.73;;;6.93;;
28296;SDS011;62078;49.366;8.172;2022-08-19T11:19:12;8.55;;;6.63;;
28296;SDS011;62078;49.366;8.172;2022-08-19T11:21:40;7.40;;;6.22;;
28296;SDS011;62078;49.366;8.172;2022-08-19T11:24:12;7.43;;;6.18;;
28296;SDS011;62078;49.366;8.172;2022-08-19T11:26:41;9.98;;;6.40;;
28296;SDS011;62078;49.366;8.172;2022-08-19T11:29:09;11.63;;;5.82;;
28296;SDS011;62078;49.366;8.172;2022-08-19T11:31:36;7.47;;;5.88;;
28296;SDS011;62078;49.366;8.172;2022-08-19T11:34:05;7.05;;;5.40;;
28296;SDS011;62078;49.366;8.172;2022-08-19T11:36:34;11.68;;;5.70;;
28296;SDS011;62078;49.366;8.172;2022-08-19T11:39:03;11.75;;;5.85;;
28296;SDS011;62078;49.366;8.172;2022-08-19T11:41:31;12.15;;;6.07;;
28296;SDS011;62078;49.366;8.172;2022-08-19T11:43:56;9.70;;;6.03;;
28296;SDS011;62078;49.366;8.172;2022-08-19T11:46:23;7.75;;;6.40;;
28296;SDS011;62078;49.366;8.172;2022-08-19T11:48:50;12.15;;;6.22;;
28296;SDS011;62078;49.366;8.172;2022-08-19T11:51:17;9.32;;;5.97;;
28296;SDS011;62078;49.366;8.172;2022-08-19T11:53:45;10.07;;;6.25;;
28296;SDS011;62078;49.366;8.172;2022-08-19T11:56:11;8.60;;;5.93;;
28296;SDS011;62078;49.366;8.172;2022-08-19T11:58:38;9.85;;;5.53;;
28296;SDS011;62078;49.366;8.172;2022-08-19T12:01:10;5.53;;;4.65;;
28296;SDS011;62078;49.366;8.172;2022-08-19T12:03:38;7.30;;;4.63;;
28296;SDS011;62078;49.366;8.172;2022-08-19T12:06:08;8.43;;;3.90;;
28296;SDS011;62078;49.366;8.172;2022-08-19T12:08:37;6.28;;;3.50;;
28296;SDS011;62078;49.366;8.172;2022-08-19T12:11:03;7.65;;;4.18;;
28296;SDS011;62078;49.366;8.172;2022-08-19T12:13:32;4.85;;;3.38;;
28296;SDS011;62078;49.366;8.172;2022-08-19T12:15:59;6.50;;;4.05;;
28296;SDS011;62078;49.366;8.172;2022-08-19T12:18:26;4.30;;;3.53;;
28296;SDS011;62078;49.366;8.172;2022-08-19T12:20:53;5.70;;;3.42;;
28296;SDS011;62078;49.366;8.172;2022-08-19T12:23:22;6.05;;;3.20;;
28296;SDS011;62078;49.366;8.172;2022-08-19T12:25:48;5.00;;;3.13;;
28296;SDS011;62078;49.366;8.172;2022-08-19T12:28:21;6.15;;;3.38;;
28296;SDS011;62078;49.366;8.172;2022-08-19T12:30:48;4.68;;;3.03;;
28296;SDS011;62078;49.366;8.172;2022-08-19T12:33:16;4.07;;;3.20;;
28296;SDS011;62078;49.366;8.172;2022-08-19T12:35:44;3.75;;;3.10;;
28296;SDS011;62078;49.366;8.172;2022-08-19T12:38:12;4.75;;;3.33;;
28296;SDS011;62078;49.366;8.172;2022-08-19T12:40:39;4.88;;;3.40;;
28296;SDS011;62078;49.366;8.172;2022-08-19T12:43:06;4.95;;;3.80;;
28296;SDS011;62078;49.366;8.172;2022-08-19T12:45:33;4.10;;;3.28;;
28296;SDS011;62078;49.366;8.172;2022-08-19T12:47:59;4.05;;;3.00;;
28296;SDS011;62078;49.366;8.172;2022-08-19T12:50:25;5.65;;;2.97;;
28296;SDS011;62078;49.366;8.172;2022-08-19T12:52:51;6.10;;;2.78;;
28296;SDS011;62078;49.366;8.172;2022-08-19T12:55:17;4.30;;;2.92;;
28296;SDS011;62078;49.366;8.172;2022-08-19T12:57:44;7.30;;;2.50;;
28296;SDS011;62078;49.366;8.172;2022-08-19T13:00:11;4.15;;;2.80;;
28296;SDS011;62078;49.366;8.172;2022-08-19T13:02:39;3.85;;;2.90;;
28296;SDS011;62078;49.366;8.172;2022-08-19T13:05:09;3.90;;;2.83;;
28296;SDS011;62078;49.366;8.172;2022-08-19T13:07:38;3.40;;;2.90;;
28296;SDS011;62078;49.366;8.172;2022-08-19T13:10:05;4.30;;;2.83;;
28296;SDS011;62078;49.366;8.172;2022-08-19T13:12:32;5.57;;;2.60;;
28296;SDS011;62078;49.366;8.172;2022-08-19T13:14:58;4.03;;;3.13;;
28296;SDS011;62078;49.366;8.172;2022-08-19T13:17:24;4.97;;;2.65;;
28296;SDS011;62078;49.366;8.172;2022-08-19T13:19:49;4.80;;;2.90;;
28296;SDS011;62078;49.366;8.172;2022-08-19T13:22:15;4.60;;;2.53;;
28296;SDS011;62078;49.366;8.172;2022-08-19T13:24:42;3.63;;;2.67;;
28296;SDS011;62078;49.366;8.172;2022-08-19T13:27:08;4.10;;;2.75;;
28296;SDS011;62078;49.366;8.172;2022-08-19T13:29:34;3.88;;;2.83;;
28296;SDS011;62078;49.366;8.172;2022-08-19T13:32:18;6.03;;;2.83;;
28296;SDS011;62078;49.366;8.172;2022-08-19T13:35:03;4.28;;;2.88;;
28296;SDS011;62078;49.366;8.172;2022-08-19T13:37:29;4.57;;;2.72;;
28296;SDS011;62078;49.366;8.172;2022-08-19T13:42:42;7.90;;;2.80;;
28296;SDS011;62078;49.366;8.172;2022-08-19T13:45:11;5.72;;;3.25;;
28296;SDS011;62078;49.366;8.172;2022-08-19T13:47:39;7.65;;;3.10;;
28296;SDS011;62078;49.366;8.172;2022-08-19T13:50:10;28.02;;;5.10;;
28296;SDS011;62078;49.366;8.172;2022-08-19T13:52:37;6.72;;;3.40;;
28296;SDS011;62078;49.366;8.172;2022-08-19T13:55:04;8.18;;;3.28;;
28296;SDS011;62078;49.366;8.172;2022-08-19T13:57:30;3.35;;;2.65;;
28296;SDS011;62078;49.366;8.172;2022-08-19T13:59:57;3.80;;;3.05;;
28296;SDS011;62078;49.366;8.172;2022-08-19T14:02:23;9.40;;;3.80;;
28296;SDS011;62078;49.366;8.172;2022-08-19T14:04:49;5.03;;;3.20;;
28296;SDS011;62078;49.366;8.172;2022-08-19T14:07:15;3.75;;;2.80;;
28296;SDS011;62078;49.366;8.172;2022-08-19T14:09:41;6.57;;;2.88;;
28296;SDS011;62078;49.366;8.172;2022-08-19T14:12:07;4.63;;;3.30;;
28296;SDS011;62078;49.366;8.172;2022-08-19T14:14:36;7.63;;;2.97;;
28296;SDS011;62078;49.366;8.172;2022-08-19T14:17:06;5.20;;;3.10;;
28296;SDS011;62078;49.366;8.172;2022-08-19T14:19:33;8.75;;;3.03;;
28296;SDS011;62078;49.366;8.172;2022-08-19T14:21:59;5.15;;;3.10;;
28296;SDS011;62078;49.366;8.172;2022-08-19T14:24:25;7.40;;;3.53;;
28296;SDS011;62078;49.366;8.172;2022-08-19T14:26:51;5.00;;;3.15;;
28296;SDS011;62078;49.366;8.172;2022-08-19T14:29:16;5.90;;;3.20;;
28296;SDS011;62078;49.366;8.172;2022-08-19T14:31:42;3.75;;;2.85;;
28296;SDS011;62078;49.366;8.172;2022-08-19T14:34:09;4.28;;;3.17;;
28296;SDS011;62078;49.366;8.172;2022-08-19T14:36:38;4.55;;;3.20;;
28296;SDS011;62078;49.366;8.172;2022-08-19T14:39:04;4.45;;;3.42;;
28296;SDS011;62078;49.366;8.172;2022-08-19T14:41:30;9.52;;;3.10;;
28296;SDS011;62078;49.366;8.172;2022-08-19T14:43:56;4.53;;;2.88;;
28296;SDS011;62078;49.366;8.172;2022-08-19T14:46:23;5.20;;;3.20;;
28296;SDS011;62078;49.366;8.172;2022-08-19T14:48:51;5.03;;;3.13;;
28296;SDS011;62078;49.366;8.172;2022-08-19T14:51:18;5.25;;;3.10;;
28296;SDS011;62078;49.366;8.172;2022-08-19T14:53:44;4.82;;;3.30;;
28296;SDS011;62078;49.366;8.172;2022-08-19T14:56:14;3.35;;;2.83;;